Incourt, Belgium
Current Conditions -  °F | °C
As of 6:25 PM on Saturday 25 Oct 2014 (Local Time) from EBBE Reporting Station
Overcast Overcast  
Wind Chill: 12°   Ceiling: 4000
Heat Index: 12°   Visibility: 6mi
Dew Point: 10°   Wind: 6mph
Humidity: 88%   Direction: 270°W
Pressure: 30.15"   Gusts: NA
Location:  50.69°N, 4.8°E
Report Text: EBBE 251625Z AUTO 27005KT 9999 SCT033/// BKN040/// OVC065/// 12/10 Q1021 BLU
Loading
Personal Weather Stations






























Interactive Weather Map
Tropical Storm Tracking
New forecast layout! Learn more

10-Day Weather Forecast

Advertisements
Track Severe Weather on mobile